Stockton, IL (61085)

7:42 PM CDT on August 04, 2015 (GMT -0500)
KILSTOCK2 | | Change Station
CLOSE
Current Station
Personal Weather Station
Location: Stockton, IL
Elevation: 959 ft
Nearby Weather Stations

Elev 959 ft 42.40 °N, 89.99 °W | Updated 9 minutes ago

Clear
Clear
71.9 °F
Feels Like 75 °F
N
0.0
Wind Variable Wind from NNE
Gusts 1.0 mph

Today
High -- | Low -- °F
--% Chance of Precip.
Yesterday
High -- | Low -- °F
Precip. -- in
5:55 AM 8:16 PM
Waning Gibbous, 73% visible
Pressure 29.99 in
Visibility 10.0 miles
Clouds Clear
Heat Index 75 °F
Dew Point 62 °F
Humidity 70%
Rainfall 0.00 in
Snow Depth Not available.
UV 0 out of 12
Pollen 6.60 out of 12
Air Quality Not available.
Flu Activity Not available.
METAR KSFY 050035Z AUTO 36003KT 10SM CLR 24/14 A2999 RMK AO2 T02420137

More Conditions Fewer Conditions

Pressure 29.99 in
Visibility 10.0 miles
Clouds Clear
Heat Index 75 °F
Dew Point 62 °F
Humidity 70%
Rainfall 0.00 in
Snow Depth Not available.
UV 0 out of 12
Pollen 6.60 out of 12
Air Quality Not available.
Flu Activity Not available.
METAR KSFY 050035Z AUTO 36003KT 10SM CLR 24/14 A2999 RMK AO2 T02420137

More Conditions Fewer Conditions

10-Day Weather Forecast

×

Almanac

Astronomy

Aug. 04, 2015 Rise Set
Actual Time
Civil Twilight
Nautical Twilight
Astronomical Twilight
Moon
Length of Visible Light
Length of Day
Tomorrow will be .
, % of the Moon is Illuminated

Today's Extremes

State Highs State Lows

Community

WunderPhotos

Upload Photos

1,844,033 photos uploaded!

WunderBlogs® & News

Nearby

Air Quality

  Air Quality AQ Index Pollutant
Not available.

Snow Depth

Station Depth Elevation

Earthquake Activity

City Distance Mag. Time & Date
Minimum magnitude displayed is 2.5.

Coastal Water Temperatures

Place Temperature

Stations

Nearby Weather Stations

Station Location Temp. Windchill Dew Point Humidity Wind Precip. Elev Updated Type